Time;durP1;ratioP1;P1;durP2;ratioP2;P2;SDS_P1;SDS_P2;PMS_P1;PMS_P2;Temp;Humidity;BMP_temperature;BMP_pressure;BME280_temperature;BME280_humidity;BME280_pressure;Samples;Min_cycle;Max_cycle;Signal;HPM_P1;HPM_P2
2021/01/23 00:01:22;;;;;;;2.30;2.03;;;9.00;96.70;;;;;;5035563;28;20677;-49
2021/01/23 00:03:47;;;;;;;2.30;2.10;;;9.00;96.70;;;;;;5017180;28;20223;-49
2021/01/23 00:06:13;;;;;;;2.00;1.80;;;9.00;96.70;;;;;;5035144;28;20179;-47
2021/01/23 00:08:38;;;;;;;2.00;1.80;;;9.00;96.80;;;;;;5033479;28;20291;-48
2021/01/23 00:11:04;;;;;;;2.33;2.13;;;9.00;97.00;;;;;;5033290;28;20287;-48
2021/01/23 00:13:30;;;;;;;2.13;1.93;;;9.00;97.00;;;;;;5033632;28;20180;-49
2021/01/23 00:15:56;;;;;;;2.13;1.90;;;9.00;97.00;;;;;;5034332;28;20179;-49
2021/01/23 00:18:22;;;;;;;1.70;1.60;;;9.00;97.10;;;;;;5034330;28;20203;-49
2021/01/23 00:20:47;;;;;;;2.13;1.83;;;9.10;97.10;;;;;;5035438;28;20250;-52
2021/01/23 00:23:13;;;;;;;2.17;1.90;;;9.00;97.10;;;;;;5034716;28;20203;-49
2021/01/23 00:25:38;;;;;;;2.30;1.77;;;9.00;97.20;;;;;;5034298;28;20183;-48
2021/01/23 00:28:05;;;;;;;1.60;1.50;;;9.00;97.20;;;;;;5034855;28;20172;-54
2021/01/23 00:30:30;;;;;;;2.20;2.00;;;9.00;97.30;;;;;;5034651;28;20266;-47
2021/01/23 00:32:56;;;;;;;2.07;1.57;;;9.00;97.30;;;;;;5034942;28;20636;-49
2021/01/23 00:35:21;;;;;;;1.63;1.53;;;9.10;97.30;;;;;;5034396;28;20211;-47
2021/01/23 00:37:48;;;;;;;1.83;1.70;;;9.20;97.30;;;;;;5034929;28;20176;-50
2021/01/23 00:40:15;;;;;;;2.60;1.60;;;9.20;97.10;;;;;;5034470;28;20264;-49
2021/01/23 00:42:40;;;;;;;2.20;1.80;;;9.20;97.00;;;;;;5034716;28;20206;-51
2021/01/23 00:45:07;;;;;;;1.73;1.63;;;9.20;97.10;;;;;;5033909;28;20184;-53
2021/01/23 00:47:32;;;;;;;2.07;1.87;;;9.30;96.90;;;;;;5034286;28;20190;-47
2021/01/23 00:49:58;;;;;;;1.70;1.60;;;9.20;97.00;;;;;;5034133;28;20195;-47
2021/01/23 00:52:23;;;;;;;2.30;2.03;;;9.20;97.10;;;;;;5034606;28;20254;-52
2021/01/23 00:54:49;;;;;;;3.00;2.10;;;9.20;97.20;;;;;;5016771;28;20223;-52
2021/01/23 00:57:14;;;;;;;1.90;1.80;;;9.20;97.20;;;;;;5034007;28;20194;-47
2021/01/23 00:59:40;;;;;;;2.67;2.07;;;9.30;97.10;;;;;;5034495;28;20235;-48
2021/01/23 01:02:05;;;;;;;2.50;2.30;;;9.30;97.00;;;;;;5033834;28;20192;-47
2021/01/23 01:04:31;;;;;;;2.37;2.00;;;9.40;96.90;;;;;;5034315;28;20636;-47
2021/01/23 01:06:56;;;;;;;2.27;2.07;;;9.50;96.90;;;;;;5033958;28;20195;-47
2021/01/23 01:09:22;;;;;;;2.93;2.50;;;9.50;96.90;;;;;;5033502;28;20755;-50
2021/01/23 01:11:48;;;;;;;3.40;2.60;;;9.50;96.80;;;;;;5032359;28;20202;-50
2021/01/23 01:14:13;;;;;;;3.27;2.60;;;9.60;96.70;;;;;;5033551;28;20258;-51
2021/01/23 01:16:39;;;;;;;3.07;2.70;;;9.60;96.60;;;;;;5033969;28;20266;-51
2021/01/23 01:19:04;;;;;;;2.77;2.47;;;9.60;96.60;;;;;;5034060;28;20203;-51
2021/01/23 01:21:30;;;;;;;2.57;2.30;;;9.60;96.60;;;;;;5034104;28;20198;-48
2021/01/23 01:23:55;;;;;;;2.53;2.30;;;9.60;96.60;;;;;;5033166;28;20214;-50
2021/01/23 01:26:21;;;;;;;2.63;2.10;;;9.60;96.50;;;;;;5034276;28;20586;-50
2021/01/23 01:28:46;;;;;;;2.43;1.97;;;9.60;96.50;;;;;;5033722;28;20647;-56
2021/01/23 01:31:12;;;;;;;2.37;2.03;;;9.60;96.50;;;;;;5031688;28;20223;-47
2021/01/23 01:33:37;;;;;;;2.17;1.97;;;9.70;96.40;;;;;;5033584;28;20183;-52
2021/01/23 01:36:03;;;;;;;2.53;2.30;;;9.70;96.40;;;;;;5033789;28;20691;-49
2021/01/23 01:38:29;;;;;;;2.67;2.20;;;9.70;96.40;;;;;;5032721;28;20227;-50
2021/01/23 01:40:55;;;;;;;3.27;2.30;;;9.50;96.50;;;;;;5031446;28;20219;-49
2021/01/23 01:43:20;;;;;;;2.43;2.20;;;9.40;96.60;;;;;;5033375;28;20571;-51
2021/01/23 01:45:46;;;;;;;2.53;2.20;;;9.40;96.60;;;;;;5033638;28;20517;-54
2021/01/23 01:48:11;;;;;;;2.10;1.87;;;9.30;96.70;;;;;;5033023;28;20196;-52
2021/01/23 01:50:40;;;;;;;2.50;2.30;;;9.00;96.70;;;;;;5031360;28;20309;-52
2021/01/23 01:53:06;;;;;;;3.53;3.20;;;8.50;97.60;;;;;;5033533;28;20187;-56
2021/01/23 01:55:34;;;;;;;4.20;3.40;;;8.10;98.60;;;;;;5033792;28;20187;-56
2021/01/23 01:58:03;;;;;;;4.20;3.80;;;7.80;99.10;;;;;;5032681;28;20190;-50
2021/01/23 02:00:29;;;;;;;4.33;3.67;;;7.60;99.60;;;;;;5033654;28;20640;-51
2021/01/23 02:03:22;;;;;;;4.93;3.97;;;7.30;99.90;;;;;;5033289;28;20580;-51
2021/01/23 02:06:11;;;;;;;5.67;4.63;;;7.00;99.90;;;;;;5033092;28;20195;-50
2021/01/23 02:08:52;;;;;;;5.77;4.60;;;6.80;99.90;;;;;;5033351;28;20556;-50
2021/01/23 02:11:39;;;;;;;7.33;4.83;;;6.70;99.90;;;;;;5013868;28;20184;-47
2021/01/23 02:14:43;;;;;;;6.60;4.97;;;6.40;99.90;;;;;;5025332;28;20662;-47
2021/01/23 02:17:13;;;;;;;7.03;5.23;;;6.10;99.90;;;;;;5032782;28;21015;-47
2021/01/23 02:19:59;;;;;;;5.87;4.77;;;6.00;99.90;;;;;;5032352;28;20195;-48
2021/01/23 02:22:49;;;;;;;8.10;5.47;;;5.80;99.90;;;;;;5033550;28;20188;-54
2021/01/23 02:25:20;;;;;;;7.30;5.60;;;5.70;99.90;;;;;;5033428;28;20196;-50
2021/01/23 02:28:06;;;;;;;6.57;4.87;;;5.70;99.90;;;;;;5033474;28;20176;-47
2021/01/23 02:30:45;;;;;;;7.53;5.47;;;5.60;99.90;;;;;;5033896;28;20188;-49
2021/01/23 02:33:13;;;;;;;6.67;5.10;;;5.70;99.90;;;;;;5033446;28;20648;-49
2021/01/23 02:35:41;;;;;;;7.60;5.30;;;5.70;99.90;;;;;;5033150;28;20679;-51
2021/01/23 02:38:07;;;;;;;7.27;5.83;;;5.80;99.90;;;;;;5033575;28;20242;-50
2021/01/23 02:40:33;;;;;;;6.77;5.50;;;5.90;99.90;;;;;;5033087;28;20187;-50
2021/01/23 02:42:59;;;;;;;8.67;5.77;;;5.80;99.90;;;;;;5033335;28;20184;-56
2021/01/23 02:45:24;;;;;;;9.17;6.10;;;5.80;99.90;;;;;;5033245;28;20263;-47
2021/01/23 02:47:50;;;;;;;8.13;6.00;;;5.70;99.90;;;;;;5033528;28;20263;-47
2021/01/23 02:50:15;;;;;;;6.67;5.87;;;5.70;99.90;;;;;;5036750;28;20203;-50
2021/01/23 02:52:52;;;;;;;7.33;6.00;;;5.70;99.90;;;;;;5037484;28;20231;-49
2021/01/23 02:55:20;;;;;;;6.13;5.43;;;5.80;99.90;;;;;;5036487;28;20536;-49
2021/01/23 02:57:49;;;;;;;8.97;6.10;;;5.80;99.90;;;;;;5036684;28;20172;-52
2021/01/23 03:00:16;;;;;;;7.90;5.93;;;5.90;99.90;;;;;;5036638;28;20527;-54
2021/01/23 03:02:45;;;;;;;8.00;6.40;;;6.20;99.90;;;;;;5037155;28;20639;-49
2021/01/23 03:05:13;;;;;;;8.50;6.33;;;6.30;99.90;;;;;;5036620;28;20623;-47
2021/01/23 03:07:38;;;;;;;7.97;6.37;;;6.50;99.90;;;;;;5036599;28;20172;-49
2021/01/23 03:10:07;;;;;;;7.43;5.87;;;6.60;99.90;;;;;;5036531;28;20211;-51
2021/01/23 03:12:33;;;;;;;8.23;6.40;;;6.50;99.90;;;;;;5036545;28;20204;-48
2021/01/23 03:15:00;;;;;;;7.87;7.03;;;6.30;99.90;;;;;;5026593;28;20695;-51
2021/01/23 03:17:26;;;;;;;8.07;6.40;;;6.20;99.90;;;;;;5019345;28;20184;-55
2021/01/23 03:19:52;;;;;;;10.27;6.60;;;6.10;99.90;;;;;;5016757;28;20211;-47
2021/01/23 03:22:17;;;;;;;7.90;6.30;;;6.10;99.90;;;;;;5016550;28;20275;-49
2021/01/23 03:24:43;;;;;;;10.67;5.93;;;6.00;99.90;;;;;;5016322;28;20264;-49
2021/01/23 03:27:09;;;;;;;7.30;6.13;;;6.00;99.90;;;;;;5015897;28;20710;-53
2021/01/23 03:29:35;;;;;;;8.73;6.07;;;5.90;99.90;;;;;;5016166;28;20660;-48
2021/01/23 03:32:00;;;;;;;9.13;6.40;;;5.70;99.90;;;;;;5016065;28;20180;-50
2021/01/23 03:34:26;;;;;;;9.47;7.30;;;5.70;99.90;;;;;;5016337;28;20212;-47
2021/01/23 03:36:51;;;;;;;9.87;7.17;;;5.60;99.90;;;;;;5016546;28;20195;-47
2021/01/23 03:39:17;;;;;;;8.43;7.17;;;5.40;99.90;;;;;;5016560;28;20196;-47
2021/01/23 03:41:42;;;;;;;9.83;7.60;;;5.20;99.90;;;;;;5017130;28;20180;-47
2021/01/23 03:44:08;;;;;;;11.87;7.40;;;5.10;99.90;;;;;;5016073;28;20177;-47
2021/01/23 03:46:34;;;;;;;8.70;7.10;;;5.00;99.90;;;;;;5017072;28;20667;-50
2021/01/23 03:49:00;;;;;;;10.13;7.20;;;5.00;99.90;;;;;;5018578;28;20208;-51
2021/01/23 03:51:25;;;;;;;8.73;7.33;;;4.80;99.90;;;;;;5016994;28;20180;-46
2021/01/23 03:53:51;;;;;;;10.03;7.43;;;4.70;99.90;;;;;;5016742;28;20243;-48
2021/01/23 03:56:16;;;;;;;10.80;8.40;;;4.60;99.90;;;;;;5016301;28;20575;-47
2021/01/23 03:58:42;;;;;;;12.00;9.33;;;4.60;99.90;;;;;;5016675;28;20363;-49
2021/01/23 04:01:08;;;;;;;10.80;8.60;;;4.50;99.90;;;;;;5014805;28;20202;-46
2021/01/23 04:03:33;;;;;;;10.20;8.33;;;4.50;99.90;;;;;;5017210;28;20540;-50
2021/01/23 04:05:59;;;;;;;12.10;9.57;;;4.50;99.90;;;;;;5016678;28;20183;-52
2021/01/23 04:08:25;;;;;;;11.47;9.37;;;4.50;99.90;;;;;;5016376;28;20224;-48
2021/01/23 04:10:50;;;;;;;12.00;9.90;;;4.50;99.90;;;;;;5016073;28;20208;-49
2021/01/23 04:13:16;;;;;;;12.43;9.77;;;4.50;99.90;;;;;;5015176;28;20200;-47
2021/01/23 04:15:41;;;;;;;12.07;9.63;;;4.50;99.90;;;;;;5016243;28;20207;-47
2021/01/23 04:18:07;;;;;;;12.43;10.20;;;4.50;99.90;;;;;;5016439;28;20672;-49
2021/01/23 04:20:33;;;;;;;11.87;10.00;;;4.50;99.90;;;;;;5015984;28;20165;-47
2021/01/23 04:22:58;;;;;;;14.00;11.10;;;4.50;99.90;;;;;;5015926;28;20189;-51
2021/01/23 04:25:24;;;;;;;14.20;10.60;;;4.40;99.90;;;;;;5015055;28;20262;-47
2021/01/23 04:27:49;;;;;;;12.27;10.23;;;4.40;99.90;;;;;;5015105;28;20176;-48
2021/01/23 04:30:15;;;;;;;12.63;10.47;;;4.40;99.90;;;;;;5015335;28;20177;-48
2021/01/23 04:32:41;;;;;;;12.17;10.30;;;4.40;99.90;;;;;;5015563;28;20242;-49
2021/01/23 04:35:11;;;;;;;11.83;10.53;;;4.50;99.90;;;;;;5015564;28;20195;-54
2021/01/23 04:37:38;;;;;;;14.57;11.33;;;4.50;99.90;;;;;;5014979;28;20214;-50
2021/01/23 04:40:06;;;;;;;14.60;11.23;;;4.50;99.90;;;;;;5015274;28;20620;-49
2021/01/23 04:42:32;;;;;;;13.67;11.27;;;4.50;99.90;;;;;;5015071;28;20232;-49
2021/01/23 04:44:58;;;;;;;12.70;11.40;;;4.50;99.90;;;;;;5033647;28;20179;-49
2021/01/23 04:47:24;;;;;;;13.20;11.67;;;4.60;99.90;;;;;;5034302;28;20322;-47
2021/01/23 04:49:50;;;;;;;13.33;11.47;;;4.50;99.90;;;;;;5032447;28;20774;-49
2021/01/23 04:52:16;;;;;;;12.70;11.33;;;4.50;99.90;;;;;;5034477;28;20587;-49
2021/01/23 04:54:43;;;;;;;13.03;11.60;;;4.50;99.90;;;;;;5034082;28;20669;-46
2021/01/23 04:57:09;;;;;;;12.57;10.93;;;4.60;99.90;;;;;;5034488;28;20183;-47
2021/01/23 04:59:35;;;;;;;15.50;11.97;;;4.60;99.90;;;;;;5035734;28;20204;-48
2021/01/23 05:02:21;;;;;;;10.60;8.90;;;4.60;99.90;;;;;;5032579;28;20302;-47
2021/01/23 05:04:58;;;;;;;9.83;8.13;;;4.50;99.90;;;;;;5033769;28;20195;-48
2021/01/23 05:07:26;;;;;;;7.40;5.97;;;4.30;99.90;;;;;;5036759;28;20179;-46
2021/01/23 05:09:52;;;;;;;6.40;5.23;;;4.00;99.90;;;;;;5032161;28;20247;-50
2021/01/23 05:12:42;;;;;;;6.03;5.40;;;3.80;99.90;;;;;;5038275;28;20191;-47
2021/01/23 05:15:18;;;;;;;7.17;5.20;;;3.60;99.90;;;;;;5035655;28;20258;-54
2021/01/23 05:17:55;;;;;;;4.87;4.37;;;3.50;99.90;;;;;;5034087;28;20183;-46
2021/01/23 05:20:36;;;;;;;4.67;4.27;;;3.50;99.90;;;;;;5033889;28;20183;-46
2021/01/23 05:23:18;;;;;;;4.90;4.40;;;3.40;99.90;;;;;;5025908;28;20191;-50
2021/01/23 05:25:47;;;;;;;6.10;4.70;;;3.40;99.90;;;;;;5032476;28;20247;-49
2021/01/23 05:28:23;;;;;;;4.30;3.90;;;3.30;99.90;;;;;;5034309;28;20694;-52
2021/01/23 05:30:50;;;;;;;3.97;3.60;;;3.30;99.90;;;;;;5031257;28;20713;-50
2021/01/23 05:33:28;;;;;;;3.70;3.40;;;3.20;99.90;;;;;;5017126;28;20215;-46
2021/01/23 05:36:01;;;;;;;3.17;2.90;;;3.10;99.90;;;;;;5033057;28;20246;-46
2021/01/23 05:38:40;;;;;;;3.23;2.93;;;3.00;99.90;;;;;;5033408;28;20238;-46
2021/01/23 05:41:06;;;;;;;2.60;2.40;;;2.80;99.90;;;;;;5036226;28;20411;-46
2021/01/23 05:43:43;;;;;;;3.60;2.60;;;2.70;99.90;;;;;;5034335;28;20207;-51
2021/01/23 05:46:15;;;;;;;2.13;1.97;;;2.60;99.90;;;;;;5034945;28;20195;-51
2021/01/23 05:48:43;;;;;;;2.27;2.17;;;2.50;99.90;;;;;;5037037;28;20503;-50
2021/01/23 05:51:09;;;;;;;2.13;1.90;;;2.40;99.90;;;;;;5031156;28;20438;-52
2021/01/23 05:53:35;;;;;;;2.07;1.97;;;2.30;99.90;;;;;;5033768;28;20466;-50
2021/01/23 05:56:01;;;;;;;1.93;1.83;;;2.20;99.90;;;;;;5032762;28;20187;-46
2021/01/23 05:58:28;;;;;;;2.40;2.20;;;2.20;99.90;;;;;;5035101;28;20195;-46
2021/01/23 06:00:56;;;;;;;2.53;2.33;;;2.10;99.90;;;;;;5034551;28;20422;-48
2021/01/23 06:03:22;;;;;;;2.73;2.53;;;2.10;99.90;;;;;;5033253;28;20457;-47
2021/01/23 06:05:53;;;;;;;2.77;2.57;;;2.10;99.90;;;;;;5032161;28;20440;-49
2021/01/23 06:08:40;;;;;;;3.03;2.83;;;2.00;99.90;;;;;;5033499;28;20529;-46
2021/01/23 06:11:27;;;;;;;2.87;2.67;;;2.10;99.90;;;;;;5032181;28;20964;-48
2021/01/23 06:13:56;;;;;;;3.30;3.00;;;2.00;99.90;;;;;;5018855;28;20478;-53
2021/01/23 06:16:33;;;;;;;2.87;2.67;;;2.10;99.90;;;;;;5036097;28;20419;-51
2021/01/23 06:18:59;;;;;;;3.73;3.43;;;2.00;99.90;;;;;;5031895;28;20458;-48
2021/01/23 06:21:43;;;;;;;3.03;2.83;;;2.00;99.90;;;;;;5038191;28;20496;-51
2021/01/23 06:24:14;;;;;;;3.23;2.80;;;2.00;99.90;;;;;;5037081;28;20418;-51
2021/01/23 06:26:55;;;;;;;3.13;2.87;;;2.00;99.90;;;;;;5036984;28;20416;-47
2021/01/23 06:29:43;;;;;;;3.10;2.87;;;2.00;99.90;;;;;;5019444;28;20430;-51
2021/01/23 06:32:11;;;;;;;3.30;3.00;;;2.10;99.90;;;;;;5019000;28;20551;-47
2021/01/23 06:34:52;;;;;;;3.10;2.90;;;2.00;99.90;;;;;;5037498;28;20426;-48
2021/01/23 06:37:39;;;;;;;3.70;3.40;;;2.00;99.90;;;;;;5036831;28;20414;-49
2021/01/23 06:40:11;;;;;;;3.50;3.20;;;2.00;99.90;;;;;;5033988;28;20454;-49
2021/01/23 06:42:39;;;;;;;3.30;3.00;;;1.90;99.90;;;;;;5037383;28;20514;-47
2021/01/23 06:45:11;;;;;;;3.10;2.90;;;1.90;99.90;;;;;;5038970;28;20924;-50
2021/01/23 06:47:41;;;;;;;3.47;3.17;;;1.80;99.90;;;;;;5036262;28;20442;-51
2021/01/23 06:50:07;;;;;;;3.60;3.30;;;1.80;99.90;;;;;;5034654;28;20965;-49
2021/01/23 06:52:44;;;;;;;3.60;3.30;;;1.80;99.90;;;;;;5038201;28;20454;-51
2021/01/23 06:55:10;;;;;;;3.07;2.80;;;1.80;99.90;;;;;;5036590;28;20409;-49
2021/01/23 06:57:51;;;;;;;3.40;3.10;;;1.70;99.90;;;;;;5036889;28;20410;-54
2021/01/23 07:00:17;;;;;;;3.30;3.00;;;1.70;99.90;;;;;;5034195;28;20278;-50
2021/01/23 07:02:42;;;;;;;3.70;3.40;;;1.70;99.90;;;;;;5035727;28;21005;-47
2021/01/23 07:05:09;;;;;;;3.57;2.93;;;1.70;99.90;;;;;;5035929;28;20187;-49
2021/01/23 07:07:38;;;;;;;3.53;3.20;;;1.70;99.90;;;;;;5037820;28;20179;-54
2021/01/23 07:10:06;;;;;;;3.30;3.00;;;1.70;99.90;;;;;;5034068;28;20479;-51
2021/01/23 07:12:38;;;;;;;3.10;2.80;;;1.70;99.90;;;;;;5014380;28;20458;-53
2021/01/23 07:15:06;;;;;;;3.70;3.20;;;1.70;99.90;;;;;;5036209;28;20422;-49
2021/01/23 07:17:39;;;;;;;3.83;2.97;;;1.70;99.90;;;;;;5037503;28;20421;-51
2021/01/23 07:20:10;;;;;;;2.60;2.40;;;1.80;99.90;;;;;;5034673;28;20466;-48
2021/01/23 07:22:40;;;;;;;2.73;2.53;;;1.80;99.90;;;;;;5036051;28;20418;-48
2021/01/23 07:25:08;;;;;;;3.10;2.90;;;1.80;99.90;;;;;;5036815;28;20484;-47
2021/01/23 07:27:35;;;;;;;2.90;2.70;;;1.80;99.90;;;;;;5035927;28;20783;-49
2021/01/23 07:30:00;;;;;;;2.70;2.50;;;1.70;99.90;;;;;;5033314;28;20604;-51
2021/01/23 07:32:43;;;;;;;2.43;2.23;;;1.70;99.90;;;;;;5035874;28;20922;-50
2021/01/23 07:35:09;;;;;;;2.83;2.63;;;1.70;99.90;;;;;;5014697;28;20587;-45
2021/01/23 07:37:38;;;;;;;2.60;2.40;;;1.70;99.90;;;;;;5021479;28;20479;-46
2021/01/23 07:40:06;;;;;;;2.67;2.47;;;1.70;99.90;;;;;;5033393;28;20515;-51
2021/01/23 07:42:32;;;;;;;2.50;2.30;;;1.60;99.90;;;;;;5036956;28;20432;-47
2021/01/23 07:45:06;;;;;;;2.67;2.47;;;1.60;99.90;;;;;;5035748;28;20429;-53
2021/01/23 07:47:32;;;;;;;2.60;2.40;;;1.60;99.90;;;;;;5035561;28;20179;-53
2021/01/23 07:50:09;;;;;;;2.77;2.57;;;1.60;99.90;;;;;;5033768;28;20458;-46
2021/01/23 07:52:35;;;;;;;2.57;2.37;;;1.60;99.90;;;;;;5035027;28;20333;-48
2021/01/23 07:55:01;;;;;;;2.73;2.53;;;1.60;99.90;;;;;;5035960;28;20810;-48
2021/01/23 07:57:27;;;;;;;2.60;2.40;;;1.50;99.90;;;;;;5035949;28;20433;-49
2021/01/23 07:59:53;;;;;;;2.70;2.30;;;1.50;99.90;;;;;;5032415;28;20540;-50
2021/01/23 08:02:19;;;;;;;2.47;2.27;;;1.60;99.90;;;;;;5028055;28;20219;-48
2021/01/23 08:04:49;;;;;;;2.40;2.30;;;1.50;99.90;;;;;;5031753;28;20495;-48
2021/01/23 08:07:29;;;;;;;2.67;2.47;;;1.50;99.90;;;;;;5034999;28;20641;-53
2021/01/23 08:10:13;;;;;;;2.20;2.00;;;1.60;99.90;;;;;;5031591;28;20323;-46
2021/01/23 08:13:00;;;;;;;2.33;2.13;;;1.60;99.90;;;;;;5032799;28;20245;-48
2021/01/23 08:15:27;;;;;;;2.33;2.13;;;1.60;99.90;;;;;;5033929;28;20518;-49
2021/01/23 08:17:54;;;;;;;2.50;2.30;;;1.70;99.90;;;;;;5034212;28;20553;-53
2021/01/23 08:20:37;;;;;;;2.40;2.20;;;1.60;99.90;;;;;;5037775;28;20759;-50
2021/01/23 08:23:16;;;;;;;2.40;2.20;;;1.70;99.90;;;;;;5027455;28;20414;-48
2021/01/23 08:25:44;;;;;;;2.37;2.17;;;1.70;99.90;;;;;;5036098;28;20410;-48
2021/01/23 08:28:11;;;;;;;4.13;2.50;;;1.70;99.90;;;;;;5033762;28;20459;-45
2021/01/23 08:30:36;;;;;;;2.33;2.13;;;1.70;99.90;;;;;;5037211;28;20910;-50
2021/01/23 08:33:07;;;;;;;2.70;2.20;;;1.70;99.90;;;;;;5037633;28;20453;-45
2021/01/23 08:35:38;;;;;;;2.20;2.00;;;1.70;99.90;;;;;;5036249;28;20648;-50
2021/01/23 08:38:04;;;;;;;2.20;2.10;;;1.80;99.90;;;;;;5035864;28;20413;-47
2021/01/23 08:40:29;;;;;;;2.10;2.00;;;1.80;99.90;;;;;;5034156;28;20403;-47
2021/01/23 08:42:55;;;;;;;2.10;2.00;;;1.80;99.90;;;;;;5033920;28;20480;-47
2021/01/23 08:45:22;;;;;;;2.17;2.07;;;1.80;99.90;;;;;;5034553;28;20191;-50
2021/01/23 08:47:48;;;;;;;2.03;1.93;;;1.80;99.90;;;;;;5042458;28;20194;-45
2021/01/23 08:50:15;;;;;;;1.97;1.87;;;1.90;99.90;;;;;;5033858;28;20418;-47
2021/01/23 08:52:41;;;;;;;2.60;2.00;;;1.90;99.90;;;;;;5033686;28;20497;-47
2021/01/23 08:55:07;;;;;;;2.47;2.27;;;1.90;99.90;;;;;;5034811;28;20535;-45
2021/01/23 08:57:34;;;;;;;2.50;2.30;;;1.90;99.90;;;;;;5044452;28;20175;-50
2021/01/23 08:59:59;;;;;;;2.13;2.03;;;1.90;99.90;;;;;;5038793;28;20438;-48
2021/01/23 09:02:25;;;;;;;2.63;2.43;;;1.90;99.90;;;;;;5033077;28;20811;-46
2021/01/23 09:04:51;;;;;;;2.23;2.00;;;1.90;99.90;;;;;;5033381;28;20172;-44
2021/01/23 09:07:17;;;;;;;2.00;1.90;;;1.90;99.90;;;;;;5037022;28;20640;-46
2021/01/23 09:09:46;;;;;;;2.77;2.30;;;1.90;99.90;;;;;;5032450;28;20584;-49
2021/01/23 09:12:12;;;;;;;2.47;2.27;;;1.90;99.90;;;;;;5035262;28;20419;-47
2021/01/23 09:14:38;;;;;;;2.30;2.20;;;1.90;99.90;;;;;;5036602;28;20462;-45
2021/01/23 09:17:04;;;;;;;2.33;2.23;;;1.90;99.90;;;;;;5036313;28;20245;-48
2021/01/23 09:19:30;;;;;;;2.30;2.20;;;1.90;99.90;;;;;;5038414;28;20438;-45
2021/01/23 09:21:56;;;;;;;2.60;2.40;;;2.00;99.90;;;;;;5030757;28;20449;-47
2021/01/23 09:24:23;;;;;;;2.60;2.40;;;2.00;99.90;;;;;;5039835;28;20619;-47
2021/01/23 09:26:48;;;;;;;3.33;2.23;;;2.00;99.90;;;;;;5032733;28;20200;-46
2021/01/23 09:29:14;;;;;;;2.40;2.30;;;2.00;99.90;;;;;;5028942;28;20499;-48
2021/01/23 09:31:40;;;;;;;2.43;2.23;;;2.10;99.90;;;;;;5031027;28;20556;-45
2021/01/23 09:34:06;;;;;;;2.50;2.30;;;3.30;99.90;;;;;;5034353;28;20208;-46
2021/01/23 09:36:32;;;;;;;2.80;2.60;;;2.10;99.90;;;;;;5031231;28;20278;-46
2021/01/23 09:38:58;;;;;;;3.20;2.40;;;2.20;99.90;;;;;;5030892;28;20450;-45
2021/01/23 09:41:26;;;;;;;2.87;2.67;;;2.20;99.90;;;;;;5032510;28;20204;-43
2021/01/23 09:43:51;;;;;;;2.90;2.70;;;2.20;99.90;;;;;;5034764;28;20208;-51
2021/01/23 09:46:17;;;;;;;3.90;2.97;;;2.20;99.90;;;;;;5033706;28;20520;-46
2021/01/23 09:48:43;;;;;;;2.97;2.77;;;2.20;99.90;;;;;;5032777;28;20204;-53
2021/01/23 09:51:08;;;;;;;3.00;2.80;;;2.20;99.90;;;;;;5032564;28;20183;-52
2021/01/23 09:53:34;;;;;;;3.10;2.90;;;2.20;99.90;;;;;;5032471;28;20661;-54
2021/01/23 09:55:59;;;;;;;2.83;2.63;;;2.20;99.90;;;;;;5032861;28;20279;-47
2021/01/23 09:58:25;;;;;;;3.53;3.23;;;2.20;99.90;;;;;;5032300;28;20257;-54
2021/01/23 10:00:51;;;;;;;3.60;3.30;;;2.30;99.90;;;;;;5030896;28;20191;-52
2021/01/23 10:03:17;;;;;;;2.90;2.70;;;2.20;99.90;;;;;;5035352;28;20199;-48
2021/01/23 10:05:43;;;;;;;3.00;2.80;;;2.30;99.90;;;;;;5036870;28;20484;-50
2021/01/23 10:08:09;;;;;;;3.20;3.00;;;2.30;99.90;;;;;;5036338;28;20260;-46
2021/01/23 10:10:34;;;;;;;3.00;2.80;;;2.30;99.90;;;;;;5036901;28;20824;-48
2021/01/23 10:13:00;;;;;;;2.80;2.60;;;2.30;99.90;;;;;;5036009;28;20651;-49
2021/01/23 10:15:25;;;;;;;3.20;3.00;;;2.30;99.90;;;;;;5036740;28;20168;-50
2021/01/23 10:17:51;;;;;;;3.07;2.87;;;2.30;99.90;;;;;;5035946;28;20176;-45
2021/01/23 10:20:16;;;;;;;3.37;3.10;;;2.40;99.90;;;;;;5039040;28;20650;-48
2021/01/23 10:22:42;;;;;;;3.27;3.07;;;2.40;99.90;;;;;;5037561;28;20183;-49
2021/01/23 10:25:08;;;;;;;3.37;3.07;;;2.40;99.90;;;;;;5035861;28;20310;-50
2021/01/23 10:27:34;;;;;;;3.37;3.10;;;2.40;99.90;;;;;;5038273;28;20191;-51
2021/01/23 10:30:00;;;;;;;3.30;3.10;;;2.50;99.90;;;;;;5037912;28;20453;-48
2021/01/23 10:32:26;;;;;;;3.20;2.90;;;2.50;99.90;;;;;;5036060;28;20238;-46
2021/01/23 10:34:52;;;;;;;3.17;2.97;;;2.50;99.90;;;;;;5037026;28;20490;-48
2021/01/23 10:37:18;;;;;;;3.27;3.07;;;2.50;99.90;;;;;;5035777;28;20286;-49
2021/01/23 10:39:43;;;;;;;3.53;3.20;;;2.50;99.90;;;;;;5036775;28;20234;-46
2021/01/23 10:42:09;;;;;;;4.03;3.47;;;2.50;99.90;;;;;;5036304;28;20434;-47
2021/01/23 10:44:41;;;;;;;4.20;3.43;;;2.70;99.90;;;;;;5036458;28;20172;-45
2021/01/23 10:47:07;;;;;;;3.43;3.13;;;2.80;99.90;;;;;;5035931;28;20246;-44
2021/01/23 10:49:33;;;;;;;2.90;2.70;;;2.80;99.90;;;;;;5036164;28;20426;-48
2021/01/23 10:51:59;;;;;;;2.93;2.73;;;2.90;99.90;;;;;;5036057;28;20682;-45
2021/01/23 10:54:25;;;;;;;3.03;2.83;;;3.00;99.90;;;;;;5035988;28;20227;-48
2021/01/23 10:56:51;;;;;;;3.40;3.10;;;3.00;99.90;;;;;;5035315;28;20257;-45
2021/01/23 10:59:16;;;;;;;3.10;2.90;;;3.00;99.90;;;;;;5034844;28;20290;-49
2021/01/23 11:01:42;;;;;;;3.50;3.20;;;3.00;99.90;;;;;;5034663;28;20584;-47
2021/01/23 11:04:07;;;;;;;3.17;2.97;;;3.00;99.90;;;;;;5035623;28;20670;-49
2021/01/23 11:06:33;;;;;;;3.50;3.20;;;2.90;99.90;;;;;;5034727;28;20198;-50
2021/01/23 11:08:58;;;;;;;5.57;3.30;;;2.90;99.90;;;;;;5033829;28;20196;-45
2021/01/23 11:11:24;;;;;;;3.03;2.83;;;2.90;99.90;;;;;;5033029;28;20179;-48
2021/01/23 11:13:50;;;;;;;3.30;3.03;;;2.90;99.90;;;;;;5030854;28;20204;-45
2021/01/23 11:16:15;;;;;;;2.90;2.70;;;3.10;99.90;;;;;;5029049;28;20175;-47
2021/01/23 11:18:41;;;;;;;3.20;2.90;;;3.10;99.90;;;;;;5034150;28;20672;-50
2021/01/23 11:21:06;;;;;;;3.00;2.80;;;3.00;99.90;;;;;;5034043;28;20251;-46
2021/01/23 11:23:32;;;;;;;3.10;2.80;;;3.10;99.90;;;;;;5029352;28;20200;-48
2021/01/23 11:25:58;;;;;;;3.53;3.23;;;3.30;99.90;;;;;;5025837;28;20191;-48
2021/01/23 11:28:23;;;;;;;3.40;3.10;;;3.40;99.90;;;;;;5019250;28;20212;-50
2021/01/23 11:30:53;;;;;;;4.03;3.30;;;3.50;99.90;;;;;;5030176;28;20568;-46
2021/01/23 11:33:18;;;;;;;5.47;4.50;;;3.70;99.90;;;;;;5027483;28;20896;-49
2021/01/23 11:35:44;;;;;;;3.57;3.27;;;3.60;99.90;;;;;;5033464;28;20180;-52
2021/01/23 11:38:10;;;;;;;3.50;3.13;;;3.50;99.90;;;;;;5034293;28;20714;-51
2021/01/23 11:40:36;;;;;;;3.57;3.27;;;3.50;99.90;;;;;;5034047;28;20172;-51
2021/01/23 11:43:02;;;;;;;4.93;3.10;;;3.40;99.90;;;;;;5034381;28;20321;-48
2021/01/23 11:45:27;;;;;;;3.17;2.97;;;3.20;99.90;;;;;;5033542;28;20645;-46
2021/01/23 11:47:53;;;;;;;3.13;2.83;;;3.20;99.90;;;;;;5016170;28;20642;-51
2021/01/23 11:50:19;;;;;;;3.73;3.43;;;3.20;99.90;;;;;;5033987;28;20581;-48
2021/01/23 11:52:44;;;;;;;3.30;3.10;;;3.40;99.90;;;;;;5033912;28;20191;-49
2021/01/23 11:55:10;;;;;;;3.77;3.27;;;3.40;99.90;;;;;;5034079;28;20182;-50
2021/01/23 11:57:36;;;;;;;3.40;3.10;;;3.60;99.90;;;;;;5033811;28;20192;-49
2021/01/23 12:00:07;;;;;;;3.43;3.20;;;3.30;99.90;;;;;;5016097;28;20238;-53
2021/01/23 12:02:32;;;;;;;3.93;3.63;;;3.20;99.90;;;;;;5031280;28;20271;-49
2021/01/23 12:04:58;;;;;;;3.50;3.20;;;3.20;99.90;;;;;;5031870;28;20279;-49
2021/01/23 12:07:23;;;;;;;3.60;3.30;;;3.20;99.90;;;;;;5015422;28;20218;-50
2021/01/23 12:09:49;;;;;;;3.30;3.00;;;3.40;99.90;;;;;;5033355;28;20195;-49
2021/01/23 12:12:15;;;;;;;3.63;3.33;;;3.40;99.90;;;;;;5032921;28;20179;-55
2021/01/23 12:14:41;;;;;;;3.70;3.40;;;3.40;99.90;;;;;;5015574;28;20200;-53
2021/01/23 12:17:07;;;;;;;5.13;3.63;;;3.40;99.90;;;;;;5014235;28;20192;-48
2021/01/23 12:19:33;;;;;;;3.47;3.17;;;3.30;99.90;;;;;;5016150;28;20230;-55
2021/01/23 12:21:58;;;;;;;3.90;3.60;;;3.40;99.90;;;;;;5033078;28;20183;-50
2021/01/23 12:24:24;;;;;;;3.63;3.33;;;3.50;99.90;;;;;;5015628;28;20183;-52
2021/01/23 12:26:50;;;;;;;3.57;3.27;;;4.00;99.90;;;;;;5033095;28;20703;-52
2021/01/23 12:29:15;;;;;;;3.60;3.30;;;3.60;99.90;;;;;;5015700;28;20206;-47
2021/01/23 12:31:41;;;;;;;3.33;3.13;;;3.70;99.90;;;;;;5033444;28;20262;-47
2021/01/23 12:34:07;;;;;;;4.47;3.40;;;3.80;99.90;;;;;;5033582;28;20206;-47
2021/01/23 12:36:32;;;;;;;3.63;3.33;;;3.70;99.90;;;;;;5032186;28;20259;-48
2021/01/23 12:38:58;;;;;;;3.97;3.67;;;3.70;99.90;;;;;;5032099;28;20290;-52
2021/01/23 12:41:23;;;;;;;4.00;3.60;;;3.70;99.90;;;;;;5014764;28;20275;-52
2021/01/23 12:43:49;;;;;;;4.20;3.80;;;3.60;99.90;;;;;;5032326;28;20230;-48
2021/01/23 12:46:15;;;;;;;4.03;3.63;;;3.50;99.90;;;;;;5020306;28;20226;-47
2021/01/23 12:48:41;;;;;;;4.47;4.07;;;3.40;99.90;;;;;;5038626;28;20196;-51
2021/01/23 12:51:07;;;;;;;4.07;3.77;;;3.40;99.90;;;;;;5038159;28;20179;-48
2021/01/23 12:53:32;;;;;;;4.40;4.00;;;3.30;99.90;;;;;;5033638;28;20210;-49
2021/01/23 12:55:58;;;;;;;4.50;4.10;;;3.30;99.90;;;;;;5016482;28;20570;-49
2021/01/23 12:58:23;;;;;;;4.47;4.07;;;3.20;99.90;;;;;;5035230;28;20192;-48
2021/01/23 13:00:49;;;;;;;4.70;4.30;;;3.20;99.90;;;;;;5039061;28;20176;-50